createdAt,value
2017-01-11T00:00:56.648Z,0
2017-01-11T00:01:56.630Z,0
2017-01-11T00:02:56.605Z,0
2017-01-11T00:03:56.581Z,0
2017-01-11T00:04:56.565Z,0
2017-01-11T00:05:56.587Z,0
2017-01-11T00:06:56.520Z,0
2017-01-11T00:07:56.526Z,0
2017-01-11T00:08:56.881Z,0
2017-01-11T00:09:56.463Z,0
2017-01-11T00:10:56.840Z,0
2017-01-11T00:11:56.420Z,0
2017-01-11T00:12:56.401Z,0
2017-01-11T00:13:56.377Z,0
2017-01-11T00:14:56.365Z,0
2017-01-11T00:15:56.350Z,0
2017-01-11T00:16:56.341Z,0
2017-01-11T00:17:56.305Z,0
2017-01-11T00:18:56.274Z,0
2017-01-11T00:19:56.261Z,0
2017-01-11T00:20:56.266Z,0
2017-01-11T00:21:56.219Z,0
2017-01-11T00:22:56.198Z,0
2017-01-11T00:23:56.181Z,0
2017-01-11T00:24:56.154Z,0
2017-01-11T00:25:56.203Z,0
2017-01-11T00:26:56.116Z,0
2017-01-11T00:27:56.101Z,0
2017-01-11T00:28:56.077Z,0
2017-01-11T00:29:56.053Z,0
2017-01-11T00:30:56.035Z,0
2017-01-11T00:31:56.018Z,0
2017-01-11T00:32:55.995Z,0
2017-01-11T00:33:55.976Z,0
2017-01-11T00:34:55.955Z,0
2017-01-11T00:35:55.962Z,0
2017-01-11T00:36:55.917Z,0
2017-01-11T00:37:55.891Z,0
2017-01-11T00:38:55.874Z,0
2017-01-11T00:39:56.250Z,0
2017-01-11T00:40:55.840Z,0
2017-01-11T00:41:55.811Z,0
2017-01-11T00:42:55.805Z,0
2017-01-11T00:43:55.774Z,0
2017-01-11T00:44:55.751Z,0
2017-01-11T00:45:55.735Z,0
2017-01-11T00:46:55.712Z,0
2017-01-11T00:47:55.699Z,0
2017-01-11T00:48:55.670Z,0
2017-01-11T00:49:55.653Z,0
2017-01-11T00:50:55.634Z,0
2017-01-11T00:51:56.051Z,0
2017-01-11T00:52:55.590Z,0
2017-01-11T00:53:55.577Z,0
2017-01-11T00:54:55.552Z,0
2017-01-11T00:55:55.536Z,0
2017-01-11T00:56:55.510Z,0
2017-01-11T00:57:55.494Z,0
2017-01-11T00:58:55.467Z,0
2017-01-11T00:59:55.667Z,0
2017-01-11T01:00:55.433Z,0
2017-01-11T01:01:55.413Z,0
2017-01-11T01:02:55.391Z,0
2017-01-11T01:03:55.374Z,0
2017-01-11T01:04:55.356Z,0
2017-01-11T01:05:55.331Z,0
2017-01-11T01:06:55.307Z,0
2017-01-11T01:07:55.684Z,0
2017-01-11T01:08:55.267Z,0
2017-01-11T01:09:55.250Z,0
2017-01-11T01:10:55.231Z,0
2017-01-11T01:11:55.261Z,0
2017-01-11T01:12:55.194Z,0
2017-01-11T01:13:55.161Z,0
2017-01-11T01:14:55.152Z,0
2017-01-11T01:15:55.129Z,0
2017-01-11T01:16:55.112Z,0
2017-01-11T01:17:55.087Z,0
2017-01-11T01:18:55.072Z,0
2017-01-11T01:19:55.047Z,0
2017-01-11T01:20:55.031Z,0
2017-01-11T01:21:55.004Z,0
2017-01-11T01:22:54.985Z,0
2017-01-11T01:23:54.964Z,0
2017-01-11T01:24:54.959Z,0
2017-01-11T01:25:55.325Z,0
2017-01-11T01:26:54.911Z,0
2017-01-11T01:27:54.897Z,0
2017-01-11T01:28:54.864Z,0
2017-01-11T01:29:54.883Z,0
2017-01-11T01:30:54.823Z,0
2017-01-11T01:31:54.813Z,0
2017-01-11T01:32:54.780Z,0
2017-01-11T01:33:54.840Z,0
2017-01-11T01:34:54.743Z,0
2017-01-11T01:35:54.717Z,0
2017-01-11T01:36:54.700Z,0
2017-01-11T01:37:54.686Z,0
2017-01-11T01:38:54.754Z,0
2017-01-11T01:39:54.644Z,0
2017-01-11T01:40:54.613Z,0
2017-01-11T01:41:54.606Z,0
2017-01-11T01:42:54.638Z,0
2017-01-11T01:43:54.554Z,0
2017-01-11T01:44:54.540Z,0
2017-01-11T01:45:54.522Z,0
2017-01-11T01:46:54.496Z,0
2017-01-11T01:47:54.475Z,0
2017-01-11T01:48:54.460Z,0
2017-01-11T01:49:54.437Z,0
2017-01-11T01:50:54.419Z,0
2017-01-11T01:51:54.402Z,0
2017-01-11T01:52:54.377Z,0
2017-01-11T01:53:54.353Z,0
2017-01-11T01:54:54.335Z,0
2017-01-11T01:55:54.310Z,0
2017-01-11T01:56:54.693Z,0
2017-01-11T01:57:54.267Z,0
2017-01-11T01:58:54.251Z,0
2017-01-11T01:59:54.641Z,0
2017-01-11T02:00:54.209Z,0
2017-01-11T02:01:54.187Z,0
2017-01-11T02:02:54.170Z,0
2017-01-11T02:03:54.147Z,0
2017-01-11T02:04:54.516Z,0
2017-01-11T02:05:54.103Z,0
2017-01-11T02:06:54.083Z,0
2017-01-11T02:07:54.068Z,0
2017-01-11T02:08:54.046Z,0
2017-01-11T02:09:54.023Z,0
2017-01-11T02:10:54.013Z,0
2017-01-11T02:11:53.977Z,0
2017-01-11T02:12:53.957Z,0
2017-01-11T02:13:53.944Z,0
2017-01-11T02:14:53.916Z,0
2017-01-11T02:15:53.895Z,0
2017-01-11T02:16:53.889Z,0
2017-01-11T02:17:53.856Z,0
2017-01-11T02:18:53.836Z,0
2017-01-11T02:19:53.819Z,0
2017-01-11T02:20:53.793Z,0
2017-01-11T02:21:54.178Z,0
2017-01-11T02:22:53.753Z,0
2017-01-11T02:23:53.733Z,0
2017-01-11T02:24:53.727Z,0
2017-01-11T02:25:53.692Z,0
2017-01-11T02:26:53.670Z,0
2017-01-11T02:27:53.651Z,0
2017-01-11T02:28:53.636Z,0
2017-01-11T02:29:54.007Z,0
2017-01-11T02:30:53.602Z,0
2017-01-11T02:31:53.564Z,0
2017-01-11T02:32:53.551Z,0
2017-01-11T02:33:53.526Z,0
2017-01-11T02:34:53.507Z,0
2017-01-11T02:35:53.485Z,0
2017-01-11T02:36:53.475Z,0
2017-01-11T02:37:53.472Z,0
2017-01-11T02:38:53.424Z,0
2017-01-11T02:39:53.406Z,0
2017-01-11T02:40:53.387Z,0
2017-01-11T02:41:53.362Z,0
2017-01-11T02:42:53.342Z,0
2017-01-11T02:43:53.323Z,0
2017-01-11T02:44:53.341Z,0
2017-01-11T02:45:53.309Z,0
2017-01-11T02:46:53.261Z,0
2017-01-11T02:47:53.245Z,0
2017-01-11T02:48:53.228Z,0
2017-01-11T02:49:53.614Z,0
2017-01-11T02:50:53.184Z,0
2017-01-11T02:51:53.168Z,0
2017-01-11T02:52:53.137Z,0
2017-01-11T02:53:53.123Z,0
2017-01-11T02:54:53.093Z,0
2017-01-11T02:55:53.477Z,0
2017-01-11T02:56:53.458Z,0
2017-01-11T02:57:53.035Z,0
2017-01-11T02:58:53.015Z,0
2017-01-11T02:59:53.201Z,0
2017-01-11T03:00:52.975Z,0
2017-01-11T03:01:52.958Z,0
2017-01-11T03:02:52.938Z,0
2017-01-11T03:03:52.913Z,0
2017-01-11T03:04:52.899Z,0
2017-01-11T03:05:52.871Z,0
2017-01-11T03:06:52.853Z,0
2017-01-11T03:07:52.841Z,0
2017-01-11T03:08:52.811Z,0
2017-01-11T03:09:52.795Z,0
2017-01-11T03:10:52.763Z,0
2017-01-11T03:11:52.750Z,0
2017-01-11T03:12:52.738Z,0
2017-01-11T03:13:52.708Z,0
2017-01-11T03:14:52.693Z,0
2017-01-11T03:15:52.670Z,0
2017-01-11T03:16:52.650Z,0
2017-01-11T03:17:52.632Z,0
2017-01-11T03:18:52.614Z,0
2017-01-11T03:19:52.587Z,0
2017-01-11T03:20:52.567Z,0
2017-01-11T03:21:52.552Z,0
2017-01-11T03:22:52.526Z,0
2017-01-11T03:23:52.512Z,0
2017-01-11T03:24:52.493Z,0
2017-01-11T03:25:52.476Z,0
2017-01-11T03:26:52.449Z,0
2017-01-11T03:27:52.431Z,0
2017-01-11T03:28:52.403Z,0
2017-01-11T03:29:52.390Z,0
2017-01-11T03:30:52.369Z,0
2017-01-11T03:31:52.348Z,0
2017-01-11T03:32:52.339Z,0
2017-01-11T03:33:52.299Z,0
2017-01-11T03:34:52.280Z,0
2017-01-11T03:35:52.265Z,0
2017-01-11T03:36:52.240Z,0
2017-01-11T03:37:52.225Z,0
2017-01-11T03:38:52.241Z,0
2017-01-11T03:39:52.187Z,0
2017-01-11T03:40:52.157Z,0
2017-01-11T03:41:52.144Z,0
2017-01-11T03:42:52.153Z,0
2017-01-11T03:43:52.098Z,0
2017-01-11T03:44:52.076Z,0
2017-01-11T03:45:52.062Z,0
2017-01-11T03:46:52.072Z,0
2017-01-11T03:47:52.023Z,0
2017-01-11T03:48:52.001Z,0
2017-01-11T03:49:51.980Z,0
2017-01-11T03:50:51.962Z,0
2017-01-11T03:51:51.940Z,0
2017-01-11T03:52:51.918Z,0
2017-01-11T03:53:51.901Z,0
2017-01-11T03:54:51.928Z,0
2017-01-11T03:55:51.853Z,0
2017-01-11T03:56:51.834Z,0
2017-01-11T03:57:51.815Z,0
2017-01-11T03:58:51.795Z,0
2017-01-11T03:59:52.168Z,0
2017-01-11T04:00:51.756Z,0
2017-01-11T04:01:51.741Z,0
2017-01-11T04:02:51.714Z,0
2017-01-11T04:03:51.691Z,0
2017-01-11T04:04:51.688Z,0
2017-01-11T04:05:51.651Z,0
2017-01-11T04:06:51.635Z,0
2017-01-11T04:07:51.616Z,0
2017-01-11T04:08:51.657Z,0
2017-01-11T04:09:51.577Z,0
2017-01-11T04:10:51.553Z,0
2017-01-11T04:11:51.537Z,0
2017-01-11T04:12:51.569Z,0
2017-01-11T04:13:51.495Z,0
2017-01-11T04:14:51.523Z,0
2017-01-11T04:15:51.454Z,0
2017-01-11T04:16:51.431Z,0
2017-01-11T04:17:51.409Z,0
2017-01-11T04:18:51.396Z,0
2017-01-11T04:19:51.372Z,0
2017-01-11T04:20:51.356Z,0
2017-01-11T04:21:51.330Z,0
2017-01-11T04:22:51.309Z,0
2017-01-11T04:23:51.298Z,0
2017-01-11T04:24:51.274Z,0
2017-01-11T04:25:51.250Z,0
2017-01-11T04:26:51.233Z,0
2017-01-11T04:27:51.205Z,0
2017-01-11T04:28:51.189Z,0
2017-01-11T04:29:51.171Z,0
2017-01-11T04:30:51.202Z,0
2017-01-11T04:31:51.133Z,0
2017-01-11T04:32:51.105Z,0
2017-01-11T04:33:51.084Z,0
2017-01-11T04:34:51.069Z,0
2017-01-11T04:35:51.062Z,0
2017-01-11T04:36:51.039Z,0
2017-01-11T04:37:51.015Z,0
2017-01-11T04:38:50.986Z,0
2017-01-11T04:39:50.965Z,0
2017-01-11T04:40:50.959Z,0
2017-01-11T04:41:50.931Z,0
2017-01-11T04:42:50.909Z,0
2017-01-11T04:43:50.884Z,0
2017-01-11T04:44:50.861Z,0
2017-01-11T04:45:50.841Z,0
2017-01-11T04:46:50.824Z,0
2017-01-11T04:47:50.803Z,0
2017-01-11T04:48:50.783Z,0
2017-01-11T04:49:50.758Z,0
2017-01-11T04:50:50.745Z,0
2017-01-11T04:51:50.719Z,0
2017-01-11T04:52:50.702Z,0
2017-01-11T04:53:51.074Z,0
2017-01-11T04:54:50.668Z,0
2017-01-11T04:55:50.640Z,0
2017-01-11T04:56:50.622Z,0
2017-01-11T04:57:50.598Z,0
2017-01-11T04:58:50.581Z,0
2017-01-11T04:59:50.980Z,0
2017-01-11T05:00:50.567Z,0
2017-01-11T05:01:50.908Z,0
2017-01-11T05:02:50.546Z,0
2017-01-11T05:03:50.476Z,0
2017-01-11T05:04:50.470Z,0
2017-01-11T05:05:50.833Z,0
2017-01-11T05:06:50.415Z,0
2017-01-11T05:07:50.596Z,0
2017-01-11T05:08:50.377Z,0
2017-01-11T05:09:50.359Z,0
2017-01-11T05:10:50.340Z,0
2017-01-11T05:11:50.353Z,0
2017-01-11T05:12:50.295Z,0
2017-01-11T05:13:50.279Z,0
2017-01-11T05:14:50.265Z,0
2017-01-11T05:15:50.233Z,0
2017-01-11T05:16:50.214Z,0
2017-01-11T05:17:50.193Z,0
2017-01-11T05:18:50.170Z,0
2017-01-11T05:19:50.149Z,0
2017-01-11T05:20:50.130Z,0
2017-01-11T05:21:50.113Z,0
2017-01-11T05:22:50.092Z,0
2017-01-11T05:23:50.070Z,0
2017-01-11T05:24:50.048Z,0
2017-01-11T05:25:50.030Z,0
2017-01-11T05:26:50.027Z,0
2017-01-11T05:27:49.989Z,0
2017-01-11T05:28:49.973Z,0
2017-01-11T05:29:49.957Z,0
2017-01-11T05:30:49.958Z,0
2017-01-11T05:31:49.909Z,0
2017-01-11T05:32:49.890Z,0
2017-01-11T05:33:49.865Z,0
2017-01-11T05:34:49.875Z,0
2017-01-11T05:35:49.826Z,0
2017-01-11T05:36:49.805Z,0
2017-01-11T05:37:49.795Z,0
2017-01-11T05:38:49.778Z,0
2017-01-11T05:39:49.744Z,0
2017-01-11T05:40:49.724Z,0
2017-01-11T05:41:49.703Z,0
2017-01-11T05:42:49.682Z,0
2017-01-11T05:43:49.711Z,0
2017-01-11T05:44:49.641Z,0
2017-01-11T05:45:50.017Z,0
2017-01-11T05:46:49.604Z,0
2017-01-11T05:47:49.577Z,0
2017-01-11T05:48:49.559Z,0
2017-01-11T05:49:49.537Z,0
2017-01-11T05:50:49.508Z,0
2017-01-11T05:51:49.490Z,0
2017-01-11T05:52:49.503Z,0
2017-01-11T05:53:49.913Z,0
2017-01-11T05:54:49.838Z,0
2017-01-11T05:55:49.479Z,0
2017-01-11T05:56:49.404Z,0
2017-01-11T05:57:49.370Z,0
2017-01-11T05:58:49.347Z,0
2017-01-11T05:59:49.332Z,0
2017-01-11T06:00:49.308Z,0
2017-01-11T06:01:49.285Z,0
2017-01-11T06:02:49.266Z,0
2017-01-11T06:03:49.243Z,0
2017-01-11T06:04:49.218Z,0
2017-01-11T06:05:49.201Z,0
2017-01-11T06:06:49.185Z,0
2017-01-11T06:07:49.161Z,0
2017-01-11T06:08:49.140Z,0
2017-01-11T06:09:49.124Z,0
2017-01-11T06:10:49.099Z,0
2017-01-11T06:11:49.076Z,0
2017-01-11T06:12:49.057Z,0
2017-01-11T06:13:49.032Z,0
2017-01-11T06:14:49.018Z,0
2017-01-11T06:15:48.991Z,0
2017-01-11T06:16:48.971Z,0
2017-01-11T06:17:49.000Z,0
2017-01-11T06:18:48.931Z,0
2017-01-11T06:19:48.910Z,0
2017-01-11T06:20:48.893Z,0
2017-01-11T06:21:48.863Z,0
2017-01-11T06:22:48.844Z,0
2017-01-11T06:23:48.862Z,0
2017-01-11T06:24:48.868Z,0
2017-01-11T06:25:48.788Z,0
2017-01-11T06:26:48.767Z,0
2017-01-11T06:27:48.743Z,0
2017-01-11T06:28:48.716Z,0
2017-01-11T06:29:48.697Z,0
2017-01-11T06:30:48.677Z,0
2017-01-11T06:31:48.660Z,0
2017-01-11T06:32:48.641Z,0
2017-01-11T06:33:48.611Z,0
2017-01-11T06:34:48.597Z,0
2017-01-11T06:35:48.578Z,0
2017-01-11T06:36:48.954Z,0
2017-01-11T06:37:48.534Z,0
2017-01-11T06:38:48.516Z,0
2017-01-11T06:39:48.951Z,0
2017-01-11T06:40:48.517Z,0
2017-01-11T06:41:48.460Z,0
2017-01-11T06:42:48.424Z,0
2017-01-11T06:43:48.412Z,0
2017-01-11T06:44:48.439Z,0
2017-01-11T06:45:48.374Z,0
2017-01-11T06:46:48.341Z,0
2017-01-11T06:47:48.353Z,0
2017-01-11T06:48:48.312Z,0
2017-01-11T06:49:48.286Z,0
2017-01-11T06:50:48.264Z,0
2017-01-11T06:51:48.239Z,0
2017-01-11T06:52:48.225Z,0
2017-01-11T06:53:48.241Z,0
2017-01-11T06:54:48.183Z,0
2017-01-11T06:55:48.171Z,0
2017-01-11T06:56:48.139Z,0
2017-01-11T06:57:48.121Z,0
2017-01-11T06:58:48.095Z,4
2017-01-11T06:59:48.478Z,0
2017-01-11T07:00:48.058Z,4
2017-01-11T07:01:48.036Z,0
2017-01-11T07:02:48.017Z,4
2017-01-11T07:03:47.991Z,4
2017-01-11T07:04:47.984Z,0
2017-01-11T07:05:47.957Z,4
2017-01-11T07:06:47.941Z,4
2017-01-11T07:07:47.908Z,4
2017-01-11T07:08:47.891Z,8
2017-01-11T07:09:47.870Z,4
2017-01-11T07:10:47.862Z,8
2017-01-11T07:11:47.834Z,12
2017-01-11T07:12:47.816Z,12
2017-01-11T07:13:47.802Z,12
2017-01-11T07:14:47.771Z,16
2017-01-11T07:15:47.755Z,20
2017-01-11T07:16:47.726Z,20
2017-01-11T07:17:47.705Z,20
2017-01-11T07:18:47.687Z,20
2017-01-11T07:19:47.681Z,24
2017-01-11T07:20:47.648Z,28
2017-01-11T07:21:47.625Z,28
2017-01-11T07:22:48.003Z,32
2017-01-11T07:23:47.581Z,36
2017-01-11T07:24:47.564Z,40
2017-01-11T07:25:47.594Z,44
2017-01-11T07:26:47.559Z,52
2017-01-11T07:27:47.901Z,52
2017-01-11T07:28:47.488Z,68
2017-01-11T07:29:47.495Z,76
2017-01-11T07:30:47.439Z,80
2017-01-11T07:31:47.421Z,92
2017-01-11T07:32:47.400Z,96
2017-01-11T07:33:47.380Z,96
2017-01-11T07:34:47.363Z,100
2017-01-11T07:35:47.334Z,96
2017-01-11T07:36:47.714Z,100
2017-01-11T07:37:47.295Z,112
2017-01-11T07:38:47.279Z,120
2017-01-11T07:39:47.255Z,128
2017-01-11T07:40:47.232Z,148
2017-01-11T07:41:47.287Z,164
2017-01-11T07:42:47.194Z,164
2017-01-11T07:43:47.568Z,148
2017-01-11T07:44:47.183Z,144
2017-01-11T07:45:47.132Z,128
2017-01-11T07:46:47.111Z,108
2017-01-11T07:47:47.093Z,108
2017-01-11T07:48:47.068Z,120
2017-01-11T07:49:47.454Z,124
2017-01-11T07:50:47.431Z,144
2017-01-11T07:51:47.011Z,156
2017-01-11T07:52:46.998Z,160
2017-01-11T07:53:46.961Z,164
2017-01-11T07:54:46.954Z,172
2017-01-11T07:55:46.922Z,180
2017-01-11T07:56:46.908Z,192
2017-01-11T07:57:46.892Z,208
2017-01-11T07:58:46.863Z,224
2017-01-11T07:59:46.850Z,216
2017-01-11T08:00:46.843Z,220
2017-01-11T08:01:46.806Z,256
2017-01-11T08:02:46.781Z,276
2017-01-11T08:03:46.760Z,232
2017-01-11T08:04:46.788Z,260
2017-01-11T08:05:46.759Z,268
2017-01-11T08:06:46.719Z,288
2017-01-11T08:07:46.687Z,340
2017-01-11T08:08:46.669Z,404
2017-01-11T08:09:46.641Z,432
2017-01-11T08:10:46.631Z,448
2017-01-11T08:11:46.601Z,440
2017-01-11T08:12:46.590Z,492
2017-01-11T08:13:46.561Z,552
2017-01-11T08:14:46.550Z,620
2017-01-11T08:15:46.525Z,688
2017-01-11T08:16:46.559Z,624
2017-01-11T08:17:46.487Z,696
2017-01-11T08:18:46.474Z,768
2017-01-11T08:19:46.444Z,728
2017-01-11T08:20:46.423Z,660
2017-01-11T08:21:46.404Z,668
2017-01-11T08:22:46.407Z,684
2017-01-11T08:23:46.362Z,676
2017-01-11T08:24:46.738Z,616
2017-01-11T08:25:46.324Z,628
2017-01-11T08:26:46.301Z,720
2017-01-11T08:27:46.282Z,836
2017-01-11T08:28:46.260Z,812
2017-01-11T08:29:46.242Z,820
2017-01-11T08:30:46.227Z,936
2017-01-11T08:31:46.249Z,896
2017-01-11T08:32:46.185Z,608
2017-01-11T08:33:46.164Z,568
2017-01-11T08:34:46.410Z,740
2017-01-11T08:35:46.137Z,876
2017-01-11T08:36:46.110Z,1008
2017-01-11T08:37:46.092Z,1132
2017-01-11T08:38:46.106Z,872
2017-01-11T08:39:46.074Z,1132
2017-01-11T08:40:46.028Z,1672
2017-01-11T08:41:46.006Z,1472
2017-01-11T08:42:45.985Z,1696
2017-01-11T08:43:45.970Z,2124
2017-01-11T08:44:45.946Z,1524
2017-01-11T08:45:45.954Z,1132
2017-01-11T08:46:45.911Z,960
2017-01-11T08:47:45.897Z,928
2017-01-11T08:48:45.864Z,852
2017-01-11T08:49:46.271Z,1116
2017-01-11T08:50:45.843Z,1320
2017-01-11T08:51:45.814Z,1712
2017-01-11T08:52:45.788Z,1720
2017-01-11T08:53:46.167Z,1096
2017-01-11T08:54:45.756Z,808
2017-01-11T08:55:45.730Z,788
2017-01-11T08:56:45.724Z,800
2017-01-11T08:57:46.148Z,1036
2017-01-11T08:58:45.668Z,1120
2017-01-11T08:59:45.659Z,940
2017-01-11T09:00:45.646Z,804
2017-01-11T09:01:45.618Z,1020
2017-01-11T09:02:45.596Z,1188
2017-01-11T09:03:45.574Z,1240
2017-01-11T09:04:45.558Z,1264
2017-01-11T09:05:45.543Z,1080
2017-01-11T09:06:45.516Z,1208
2017-01-11T09:07:45.519Z,1544
2017-01-11T09:08:45.480Z,1144
2017-01-11T09:09:45.856Z,1024
2017-01-11T09:10:45.440Z,1036
2017-01-11T09:11:45.428Z,872
2017-01-11T09:12:45.427Z,904
2017-01-11T09:13:45.381Z,996
2017-01-11T09:14:45.361Z,820
2017-01-11T09:15:45.348Z,620
2017-01-11T09:16:45.322Z,824
2017-01-11T09:17:45.302Z,1196
2017-01-11T09:18:45.282Z,1312
2017-01-11T09:19:45.264Z,1340
2017-01-11T09:20:45.239Z,1408
2017-01-11T09:21:45.223Z,1140
2017-01-11T09:22:45.202Z,1160
2017-01-11T09:23:45.202Z,1252
2017-01-11T09:24:45.191Z,1352
2017-01-11T09:25:45.147Z,1300
2017-01-11T09:26:45.161Z,944
2017-01-11T09:27:45.513Z,1112
2017-01-11T09:28:45.084Z,1108
2017-01-11T09:29:45.064Z,1004
2017-01-11T09:30:45.049Z,1108
2017-01-11T09:31:45.016Z,1148
2017-01-11T09:32:45.005Z,992
2017-01-11T09:33:44.987Z,956
2017-01-11T09:34:44.963Z,976
2017-01-11T09:35:44.942Z,908
2017-01-11T09:36:44.923Z,836
2017-01-11T09:37:44.905Z,852
2017-01-11T09:38:44.884Z,1044
2017-01-11T09:39:44.865Z,1040
2017-01-11T09:40:44.849Z,972
2017-01-11T09:41:44.822Z,1152
2017-01-11T09:42:44.803Z,1228
2017-01-11T09:43:44.780Z,920
2017-01-11T09:44:44.763Z,860
2017-01-11T09:45:44.745Z,928
2017-01-11T09:46:44.721Z,1032
2017-01-11T09:47:44.711Z,1128
2017-01-11T09:48:44.706Z,1232
2017-01-11T09:49:44.673Z,1440
2017-01-11T09:50:44.643Z,1708
2017-01-11T09:51:44.623Z,1380
2017-01-11T09:52:44.605Z,1488
2017-01-11T09:53:44.585Z,1444
2017-01-11T09:54:44.568Z,1300
2017-01-11T09:55:44.547Z,1568
2017-01-11T09:56:44.525Z,1880
2017-01-11T09:57:44.502Z,2104
2017-01-11T09:58:44.485Z,1424
2017-01-11T09:59:44.867Z,1176
2017-01-11T10:00:44.451Z,1380
2017-01-11T10:01:44.426Z,1880
2017-01-11T10:02:44.409Z,1748
2017-01-11T10:03:44.391Z,1796
2017-01-11T10:04:44.770Z,1492
2017-01-11T10:05:44.743Z,1696
2017-01-11T10:06:44.739Z,1672
2017-01-11T10:07:44.308Z,2264
2017-01-11T10:08:44.341Z,2192
2017-01-11T10:09:44.264Z,2224
2017-01-11T10:10:44.268Z,1752
2017-01-11T10:11:44.233Z,1672
2017-01-11T10:12:44.638Z,1352
2017-01-11T10:13:44.237Z,1820
2017-01-11T10:14:44.162Z,1868
2017-01-11T10:15:44.145Z,1876
2017-01-11T10:16:44.528Z,1704
2017-01-11T10:17:44.105Z,1460
2017-01-11T10:18:44.083Z,1368
2017-01-11T10:19:44.076Z,1936
2017-01-11T10:20:44.046Z,1908
2017-01-11T10:21:44.025Z,2284
2017-01-11T10:22:44.008Z,1884
2017-01-11T10:23:43.994Z,1956
2017-01-11T10:24:43.964Z,2580
2017-01-11T10:25:43.946Z,2276
2017-01-11T10:26:43.925Z,1456
2017-01-11T10:27:43.905Z,1352
2017-01-11T10:28:43.888Z,1968
2017-01-11T10:29:43.859Z,1640
2017-01-11T10:30:43.844Z,1684
2017-01-11T10:31:43.826Z,2092
2017-01-11T10:32:43.808Z,1348
2017-01-11T10:33:43.781Z,1168
2017-01-11T10:34:43.763Z,1180
2017-01-11T10:35:43.743Z,1172
2017-01-11T10:36:43.721Z,1212
2017-01-11T10:37:44.128Z,1032
2017-01-11T10:38:43.680Z,1416
2017-01-11T10:39:43.666Z,1352
2017-01-11T10:40:44.036Z,1360
2017-01-11T10:41:43.625Z,1188
2017-01-11T10:42:43.625Z,1192
2017-01-11T10:43:43.588Z,1172
2017-01-11T10:44:43.559Z,1412
2017-01-11T10:45:43.544Z,1584
2017-01-11T10:46:43.514Z,1316
2017-01-11T10:47:43.504Z,1416
2017-01-11T10:48:43.479Z,1344
2017-01-11T10:49:43.462Z,1156
2017-01-11T10:50:43.440Z,1136
2017-01-11T10:51:43.429Z,1568
2017-01-11T10:52:43.416Z,1568
2017-01-11T10:53:43.387Z,1436
2017-01-11T10:54:43.361Z,1168
2017-01-11T10:55:43.342Z,948
2017-01-11T10:56:43.333Z,1004
2017-01-11T10:57:43.303Z,1000
2017-01-11T10:58:43.281Z,1140
2017-01-11T10:59:43.256Z,1328
2017-01-11T11:00:43.440Z,1508
2017-01-11T11:01:43.215Z,1928
2017-01-11T11:02:43.254Z,1544
2017-01-11T11:03:43.182Z,1320
2017-01-11T11:04:43.166Z,1380
2017-01-11T11:05:43.138Z,1260
2017-01-11T11:06:43.115Z,1140
2017-01-11T11:07:43.101Z,1168
2017-01-11T11:08:43.081Z,1052
2017-01-11T11:09:43.056Z,1108
2017-01-11T11:10:43.432Z,1272
2017-01-11T11:11:43.020Z,952
2017-01-11T11:12:43.027Z,872
2017-01-11T11:13:42.980Z,780
2017-01-11T11:14:42.955Z,728
2017-01-11T11:15:42.940Z,732
2017-01-11T11:16:42.924Z,704
2017-01-11T11:17:42.900Z,780
2017-01-11T11:18:42.875Z,652
2017-01-11T11:19:42.858Z,760
2017-01-11T11:20:42.848Z,716
2017-01-11T11:21:42.820Z,676
2017-01-11T11:22:43.193Z,776
2017-01-11T11:23:42.778Z,796
2017-01-11T11:24:42.759Z,772
2017-01-11T11:25:42.742Z,676
2017-01-11T11:26:42.718Z,716
2017-01-11T11:27:42.693Z,632
2017-01-11T11:28:42.691Z,768
2017-01-11T11:29:42.662Z,852
2017-01-11T11:30:42.639Z,1008
2017-01-11T11:31:42.616Z,1004
2017-01-11T11:32:42.609Z,1112
2017-01-11T11:33:42.580Z,1564
2017-01-11T11:34:42.563Z,1812
2017-01-11T11:35:42.538Z,1400
2017-01-11T11:36:42.522Z,1344
2017-01-11T11:37:42.499Z,1116
2017-01-11T11:38:42.484Z,1096
2017-01-11T11:39:42.511Z,1080
2017-01-11T11:40:42.442Z,1440
2017-01-11T11:41:42.418Z,996
2017-01-11T11:42:42.402Z,840
2017-01-11T11:43:42.377Z,760
2017-01-11T11:44:42.362Z,880
2017-01-11T11:45:42.341Z,696
2017-01-11T11:46:42.320Z,1032
2017-01-11T11:47:42.301Z,888
2017-01-11T11:48:42.291Z,1024
2017-01-11T11:49:42.266Z,1036
2017-01-11T11:50:42.298Z,644
2017-01-11T11:51:42.224Z,524
2017-01-11T11:52:42.218Z,528
2017-01-11T11:53:42.583Z,604
2017-01-11T11:54:42.223Z,596
2017-01-11T11:55:42.146Z,536
2017-01-11T11:56:42.154Z,556
2017-01-11T11:57:42.109Z,776
2017-01-11T11:58:42.090Z,636
2017-01-11T11:59:42.065Z,436
2017-01-11T12:00:42.052Z,524
2017-01-11T12:01:42.028Z,476
2017-01-11T12:02:42.017Z,492
2017-01-11T12:03:42.002Z,520
2017-01-11T12:04:41.983Z,616
2017-01-11T12:05:41.952Z,760
2017-01-11T12:06:41.928Z,744
2017-01-11T12:07:41.914Z,828
2017-01-11T12:08:41.898Z,1080
2017-01-11T12:09:41.875Z,1164
2017-01-11T12:10:41.853Z,1024
2017-01-11T12:11:41.833Z,1028
2017-01-11T12:12:42.219Z,1252
2017-01-11T12:13:41.821Z,1344
2017-01-11T12:14:41.777Z,1788
2017-01-11T12:15:41.771Z,1464
2017-01-11T12:16:41.739Z,900
2017-01-11T12:17:41.719Z,936
2017-01-11T12:18:41.709Z,1172
2017-01-11T12:19:41.681Z,760
2017-01-11T12:20:41.667Z,812
2017-01-11T12:21:41.649Z,840
2017-01-11T12:22:41.627Z,908
2017-01-11T12:23:41.608Z,780
2017-01-11T12:24:41.981Z,588
2017-01-11T12:25:41.568Z,440
2017-01-11T12:26:41.561Z,388
2017-01-11T12:27:41.532Z,384
2017-01-11T12:28:41.508Z,496
2017-01-11T12:29:41.503Z,480
2017-01-11T12:30:41.868Z,632
2017-01-11T12:31:41.452Z,536
2017-01-11T12:32:41.440Z,692
2017-01-11T12:33:41.409Z,560
2017-01-11T12:34:41.391Z,460
2017-01-11T12:35:41.373Z,560
2017-01-11T12:36:41.358Z,396
2017-01-11T12:37:41.338Z,464
2017-01-11T12:38:41.318Z,496
2017-01-11T12:39:41.310Z,476
2017-01-11T12:40:41.278Z,564
2017-01-11T12:41:41.663Z,664
2017-01-11T12:42:41.242Z,952
2017-01-11T12:43:41.228Z,900
2017-01-11T12:44:41.238Z,876
2017-01-11T12:45:41.209Z,1000
2017-01-11T12:46:41.172Z,1028
2017-01-11T12:47:41.147Z,1060
2017-01-11T12:48:41.135Z,820
2017-01-11T12:49:41.119Z,716
2017-01-11T12:50:41.094Z,884
2017-01-11T12:51:41.069Z,1008
2017-01-11T12:52:41.071Z,1228
2017-01-11T12:53:41.058Z,1332
2017-01-11T12:54:41.020Z,1592
2017-01-11T12:55:41.002Z,1248
2017-01-11T12:56:40.974Z,1300
2017-01-11T12:57:41.365Z,1736
2017-01-11T12:58:40.947Z,1760
2017-01-11T12:59:40.920Z,1900
2017-01-11T13:00:41.112Z,2496
2017-01-11T13:01:40.886Z,3024
2017-01-11T13:02:40.869Z,6184
2017-01-11T13:03:40.852Z,9524
2017-01-11T13:04:40.833Z,8384
2017-01-11T13:05:40.818Z,9668
2017-01-11T13:06:40.801Z,11868
2017-01-11T13:07:40.783Z,8896
2017-01-11T13:08:40.771Z,10160
2017-01-11T13:09:40.744Z,11464
2017-01-11T13:10:40.720Z,14676
2017-01-11T13:11:40.713Z,14388
2017-01-11T13:12:40.695Z,19136
2017-01-11T13:13:40.684Z,13260
2017-01-11T13:14:40.660Z,11312
2017-01-11T13:15:40.647Z,7108
2017-01-11T13:16:40.635Z,5548
2017-01-11T13:17:40.629Z,4816
2017-01-11T13:18:40.604Z,4076
2017-01-11T13:19:40.978Z,3560
2017-01-11T13:20:40.569Z,3240
2017-01-11T13:21:40.547Z,3004
2017-01-11T13:22:40.543Z,2760
2017-01-11T13:23:40.927Z,2516
2017-01-11T13:24:40.901Z,2404
2017-01-11T13:25:40.489Z,2248
2017-01-11T13:26:40.523Z,2172
2017-01-11T13:27:40.463Z,1960
2017-01-11T13:28:40.447Z,2068
2017-01-11T13:29:40.422Z,1992
2017-01-11T13:30:40.414Z,2120
2017-01-11T13:31:40.395Z,2060
2017-01-11T13:32:40.383Z,1956
2017-01-11T13:33:40.358Z,1676
2017-01-11T13:34:40.345Z,1392
2017-01-11T13:35:40.329Z,1196
2017-01-11T13:36:40.321Z,972
2017-01-11T13:37:40.292Z,868
2017-01-11T13:38:40.289Z,864
2017-01-11T13:39:40.264Z,748
2017-01-11T13:40:40.252Z,672
2017-01-11T13:41:40.235Z,652
2017-01-11T13:42:40.212Z,596
2017-01-11T13:43:40.204Z,520
2017-01-11T13:44:40.196Z,636
2017-01-11T13:45:40.165Z,564
2017-01-11T13:46:40.146Z,536
2017-01-11T13:47:40.135Z,472
2017-01-11T13:48:40.111Z,468
2017-01-11T13:49:40.096Z,716
2017-01-11T13:50:40.486Z,708
2017-01-11T13:51:40.064Z,908
2017-01-11T13:52:40.042Z,992
2017-01-11T13:53:40.027Z,1040
2017-01-11T13:54:40.009Z,1064
2017-01-11T13:55:39.988Z,952
2017-01-11T13:56:39.971Z,804
2017-01-11T13:57:39.961Z,836
2017-01-11T13:58:39.942Z,864
2017-01-11T13:59:39.920Z,828
2017-01-11T14:00:39.897Z,872
2017-01-11T14:01:40.282Z,952
2017-01-11T14:02:39.880Z,980
2017-01-11T14:03:39.861Z,948
2017-01-11T14:04:39.827Z,804
2017-01-11T14:05:39.812Z,752
2017-01-11T14:06:39.795Z,872
2017-01-11T14:07:39.769Z,980
2017-01-11T14:08:39.763Z,904
2017-01-11T14:09:39.739Z,976